Time;durP1;ratioP1;P1;durP2;ratioP2;P2;SDS_P1;SDS_P2;PMS_P1;PMS_P2;Temp;Humidity;BMP_temperature;BMP_pressure;BME280_temperature;BME280_humidity;BME280_pressure;Samples;Min_cycle;Max_cycle;Signal;HPM_P1;HPM_P2
2024/04/16 00:01:41;;;;;;;3.22;1.50;;;;;;;;;;4973117;28;20043;-73
2024/04/16 00:04:07;;;;;;;1.58;1.40;;;;;;;;;;4940002;28;20081;-72
2024/04/16 00:06:33;;;;;;;3.42;1.52;;;;;;;;;;4974348;28;20055;-73
2024/04/16 00:08:59;;;;;;;1.95;1.77;;;;;;;;;;4973739;28;20545;-73
2024/04/16 00:11:25;;;;;;;1.73;1.38;;;;;;;;;;4974056;28;20046;-72
2024/04/16 00:13:53;;;;;;;2.00;1.80;;;;;;;;;;4972833;28;20054;-73
2024/04/16 00:16:48;;;;;;;1.90;1.80;;;;;;;;;;4966489;28;20115;-73
2024/04/16 00:19:15;;;;;;;2.33;2.03;;;;;;;;;;4939516;28;20091;-73
2024/04/16 00:21:41;;;;;;;1.33;1.33;;;;;;;;;;4972841;28;20082;-73
2024/04/16 00:24:07;;;;;;;3.05;1.83;;;;;;;;;;4954309;28;20132;-72
2024/04/16 00:26:33;;;;;;;3.08;2.15;;;;;;;;;;4955805;28;20047;-73
2024/04/16 00:28:59;;;;;;;2.33;2.13;;;;;;;;;;4939201;28;20066;-73
2024/04/16 00:31:25;;;;;;;3.85;2.10;;;;;;;;;;4955835;28;20057;-73
2024/04/16 00:33:51;;;;;;;1.65;1.27;;;;;;;;;;4954597;28;20039;-73
2024/04/16 00:36:17;;;;;;;2.00;1.58;;;;;;;;;;4972858;28;20051;-73
2024/04/16 00:38:43;;;;;;;2.53;2.00;;;;;;;;;;4955220;28;20039;-73
2024/04/16 00:41:08;;;;;;;1.80;1.67;;;;;;;;;;4955109;28;20067;-73
2024/04/16 00:43:34;;;;;;;1.67;1.50;;;;;;;;;;4971907;28;20090;-74
2024/04/16 00:46:00;;;;;;;2.42;2.22;;;;;;;;;;4972568;28;20046;-72
2024/04/16 00:48:26;;;;;;;5.80;1.70;;;;;;;;;;4971873;28;20043;-72
2024/04/16 00:50:56;;;;;;;1.98;1.88;;;;;;;;;;4955825;28;20149;-73
2024/04/16 00:53:22;;;;;;;2.08;1.88;;;;;;;;;;4972655;28;20566;-74
2024/04/16 00:55:48;;;;;;;1.77;1.67;;;;;;;;;;4989387;28;20109;-73
2024/04/16 00:58:15;;;;;;;1.70;1.60;;;;;;;;;;4973856;28;20046;-73
2024/04/16 01:00:41;;;;;;;1.35;1.25;;;;;;;;;;4957290;28;20062;-73
2024/04/16 01:03:07;;;;;;;1.23;1.23;;;;;;;;;;4976930;28;20062;-72
2024/04/16 01:05:33;;;;;;;1.58;1.48;;;;;;;;;;4956753;28;20523;-72
2024/04/16 01:07:59;;;;;;;1.65;1.55;;;;;;;;;;4957224;28;20125;-72
2024/04/16 01:10:25;;;;;;;2.40;1.83;;;;;;;;;;4956334;28;20562;-72
2024/04/16 01:12:51;;;;;;;5.70;2.03;;;;;;;;;;4972937;28;20054;-73
2024/04/16 01:15:17;;;;;;;2.55;1.70;;;;;;;;;;4956781;28;20054;-74
2024/04/16 01:17:42;;;;;;;2.88;1.63;;;;;;;;;;4973806;28;20044;-73
2024/04/16 01:20:09;;;;;;;2.95;1.67;;;;;;;;;;4974599;28;20122;-73
2024/04/16 01:22:35;;;;;;;1.73;1.63;;;;;;;;;;4959786;28;20043;-73
2024/04/16 01:25:01;;;;;;;1.50;1.38;;;;;;;;;;4985567;28;20057;-73
2024/04/16 01:27:29;;;;;;;2.58;1.67;;;;;;;;;;4991193;28;20046;-73
2024/04/16 01:29:55;;;;;;;1.45;1.40;;;;;;;;;;4990750;28;20450;-73
2024/04/16 01:32:21;;;;;;;0.85;0.85;;;;;;;;;;4973628;28;20046;-73
2024/04/16 01:34:47;;;;;;;1.42;1.23;;;;;;;;;;4989613;28;20050;-74
2024/04/16 01:37:13;;;;;;;1.50;1.40;;;;;;;;;;4973000;28;20060;-73
2024/04/16 01:39:39;;;;;;;1.50;1.40;;;;;;;;;;4973407;28;20141;-73
2024/04/16 01:42:05;;;;;;;1.02;1.02;;;;;;;;;;4989107;28;20136;-73
2024/04/16 01:44:31;;;;;;;3.47;1.75;;;;;;;;;;4989030;28;20065;-73
2024/04/16 01:46:57;;;;;;;1.80;1.63;;;;;;;;;;4973547;28;20509;-73
2024/04/16 01:49:23;;;;;;;1.15;1.15;;;;;;;;;;4990683;28;20038;-72
2024/04/16 01:51:49;;;;;;;3.63;1.75;;;;;;;;;;4990775;28;20042;-72
2024/04/16 01:54:15;;;;;;;1.40;1.40;;;;;;;;;;4969721;28;20101;-72
2024/04/16 01:56:41;;;;;;;1.45;1.38;;;;;;;;;;4970096;28;20452;-72
2024/04/16 01:59:08;;;;;;;1.35;1.27;;;;;;;;;;4969609;28;20077;-72
2024/04/16 02:01:34;;;;;;;1.10;1.10;;;;;;;;;;4971272;28;20051;-73
2024/04/16 02:04:00;;;;;;;1.50;1.40;;;;;;;;;;4969970;28;20049;-72
2024/04/16 02:06:25;;;;;;;1.00;1.00;;;;;;;;;;4953817;28;20050;-72
2024/04/16 02:08:52;;;;;;;1.58;1.38;;;;;;;;;;4971009;28;20046;-72
2024/04/16 02:11:18;;;;;;;0.93;0.93;;;;;;;;;;4970889;28;20069;-72
2024/04/16 02:13:44;;;;;;;1.83;1.58;;;;;;;;;;4969948;28;20039;-72
2024/04/16 02:16:10;;;;;;;1.33;1.23;;;;;;;;;;4937451;28;20047;-72
2024/04/16 02:18:36;;;;;;;2.40;1.60;;;;;;;;;;4970723;28;20074;-73
2024/04/16 02:21:02;;;;;;;2.83;1.50;;;;;;;;;;4969451;28;20062;-73
2024/04/16 02:23:27;;;;;;;1.77;1.67;;;;;;;;;;4949509;29;20063;-72
2024/04/16 02:25:54;;;;;;;3.20;1.40;;;;;;;;;;4951770;28;20039;-73
2024/04/16 02:28:20;;;;;;;1.90;1.50;;;;;;;;;;4951440;29;20492;-72
2024/04/16 02:30:46;;;;;;;1.50;1.40;;;;;;;;;;4950430;29;20035;-73
2024/04/16 02:33:13;;;;;;;3.58;1.50;;;;;;;;;;4950315;28;20054;-72
2024/04/16 02:35:39;;;;;;;1.52;1.27;;;;;;;;;;4950346;29;20050;-73
2024/04/16 02:38:05;;;;;;;3.33;1.50;;;;;;;;;;4965969;28;20047;-72
2024/04/16 02:40:31;;;;;;;1.98;1.52;;;;;;;;;;4951447;28;20436;-72
2024/04/16 02:42:56;;;;;;;3.17;1.40;;;;;;;;;;4949388;28;20098;-72
2024/04/16 02:45:22;;;;;;;1.30;1.30;;;;;;;;;;4952083;28;20637;-73
2024/04/16 02:47:48;;;;;;;1.65;1.38;;;;;;;;;;4955091;28;20043;-73
2024/04/16 02:50:14;;;;;;;1.95;1.70;;;;;;;;;;4953660;29;20046;-73
2024/04/16 02:52:40;;;;;;;3.58;1.77;;;;;;;;;;4954300;28;20039;-72
2024/04/16 02:55:06;;;;;;;0.80;0.80;;;;;;;;;;4953235;29;20043;-72
2024/04/16 02:57:33;;;;;;;1.90;1.70;;;;;;;;;;4954756;28;20044;-72
2024/04/16 02:59:59;;;;;;;1.95;1.02;;;;;;;;;;4953482;29;20079;-72
2024/04/16 03:02:25;;;;;;;2.13;1.40;;;;;;;;;;4954868;28;20043;-72
2024/04/16 03:04:51;;;;;;;1.75;1.48;;;;;;;;;;4954110;28;20098;-72
2024/04/16 03:07:17;;;;;;;2.15;1.38;;;;;;;;;;4953284;29;20401;-72
2024/04/16 03:09:43;;;;;;;1.30;1.20;;;;;;;;;;4954670;28;20051;-73
2024/04/16 03:12:09;;;;;;;4.93;1.65;;;;;;;;;;4938591;28;20058;-72
2024/04/16 03:14:34;;;;;;;2.33;1.77;;;;;;;;;;4934619;28;20111;-73
2024/04/16 03:17:00;;;;;;;1.70;1.50;;;;;;;;;;4934287;29;20437;-73
2024/04/16 03:19:27;;;;;;;1.80;1.42;;;;;;;;;;4935370;29;20139;-72
2024/04/16 03:21:53;;;;;;;2.40;1.45;;;;;;;;;;4920826;29;20102;-73
2024/04/16 03:24:19;;;;;;;2.17;1.90;;;;;;;;;;4953136;29;20051;-73
2024/04/16 03:26:45;;;;;;;2.03;1.50;;;;;;;;;;4954251;29;20042;-73
2024/04/16 03:29:11;;;;;;;2.58;1.02;;;;;;;;;;4954054;29;20358;-73
2024/04/16 03:31:37;;;;;;;1.80;1.70;;;;;;;;;;4954325;28;20539;-72
2024/04/16 03:34:03;;;;;;;4.78;2.30;;;;;;;;;;4953064;29;20071;-73
2024/04/16 03:36:29;;;;;;;1.33;1.33;;;;;;;;;;4936957;29;20154;-72
2024/04/16 03:38:55;;;;;;;1.65;1.50;;;;;;;;;;4954205;29;20038;-72
2024/04/16 03:41:22;;;;;;;3.40;1.70;;;;;;;;;;4952626;29;20047;-72
2024/04/16 03:43:51;;;;;;;2.55;1.80;;;;;;;;;;4953210;29;20520;-72
2024/04/16 03:46:17;;;;;;;1.40;1.40;;;;;;;;;;4953904;29;20133;-72
2024/04/16 03:48:43;;;;;;;1.63;1.50;;;;;;;;;;4953979;29;20055;-72
2024/04/16 03:51:09;;;;;;;2.20;1.35;;;;;;;;;;4953834;29;20047;-72
2024/04/16 03:53:34;;;;;;;1.38;1.35;;;;;;;;;;4952832;29;20059;-71
2024/04/16 03:56:00;;;;;;;7.55;1.63;;;;;;;;;;4933251;29;20039;-73
2024/04/16 03:58:27;;;;;;;3.83;1.65;;;;;;;;;;4917495;29;20133;-71
2024/04/16 04:01:06;;;;;;;1.15;1.15;;;;;;;;;;4934765;29;20420;-72
2024/04/16 04:03:32;;;;;;;1.65;1.55;;;;;;;;;;4934223;29;20075;-72
2024/04/16 04:05:59;;;;;;;1.75;1.65;;;;;;;;;;4918848;29;20133;-72
2024/04/16 04:08:25;;;;;;;1.08;1.08;;;;;;;;;;4933159;29;20115;-72
2024/04/16 04:10:51;;;;;;;3.72;1.65;;;;;;;;;;4934657;29;20619;-72
2024/04/16 04:13:16;;;;;;;1.02;1.02;;;;;;;;;;4933468;29;20062;-72
2024/04/16 04:15:42;;;;;;;1.20;1.20;;;;;;;;;;4946562;28;20051;-72
2024/04/16 04:18:08;;;;;;;4.72;1.27;;;;;;;;;;4942461;28;20112;-73
2024/04/16 04:20:35;;;;;;;4.88;1.60;;;;;;;;;;4968082;28;20058;-72
2024/04/16 04:23:01;;;;;;;1.52;1.42;;;;;;;;;;4988774;28;20058;-72
2024/04/16 04:25:26;;;;;;;1.63;1.52;;;;;;;;;;4991841;28;20039;-72
2024/04/16 04:27:52;;;;;;;1.55;1.45;;;;;;;;;;4954430;28;20523;-75
2024/04/16 04:30:18;;;;;;;2.55;1.80;;;;;;;;;;4953971;28;20051;-76
2024/04/16 04:32:50;;;;;;;2.10;1.90;;;;;;;;;;4953668;28;20108;-76
2024/04/16 04:35:16;;;;;;;1.52;1.40;;;;;;;;;;4987501;28;20074;-76
2024/04/16 04:37:42;;;;;;;2.30;1.50;;;;;;;;;;4990053;28;20467;-76
2024/04/16 04:40:08;;;;;;;1.38;1.38;;;;;;;;;;4974042;28;20427;-76
2024/04/16 04:42:34;;;;;;;2.45;1.52;;;;;;;;;;4991561;28;20117;-77
2024/04/16 04:45:00;;;;;;;1.48;1.40;;;;;;;;;;4989102;28;20514;-77
2024/04/16 04:47:26;;;;;;;1.10;1.10;;;;;;;;;;4957571;28;20042;-76
2024/04/16 04:49:51;;;;;;;1.67;1.40;;;;;;;;;;4972072;28;20060;-76
2024/04/16 04:52:17;;;;;;;3.22;1.77;;;;;;;;;;4971928;28;20425;-76
2024/04/16 04:54:43;;;;;;;1.42;1.33;;;;;;;;;;4976865;28;20047;-75
2024/04/16 04:57:09;;;;;;;4.05;1.80;;;;;;;;;;4972340;28;20042;-79
2024/04/16 04:59:34;;;;;;;1.70;1.60;;;;;;;;;;4975639;28;20077;-77
2024/04/16 05:02:01;;;;;;;1.27;1.17;;;;;;;;;;4992475;28;20399;-78
2024/04/16 05:04:27;;;;;;;2.20;2.00;;;;;;;;;;4976552;28;20065;-78
2024/04/16 05:06:53;;;;;;;1.63;1.48;;;;;;;;;;4969051;28;20039;-76
2024/04/16 05:09:19;;;;;;;3.92;1.90;;;;;;;;;;4953127;28;20062;-76
2024/04/16 05:11:44;;;;;;;3.72;2.17;;;;;;;;;;4954510;28;20543;-74
2024/04/16 05:14:11;;;;;;;2.53;2.33;;;;;;;;;;4952606;28;20066;-76
2024/04/16 05:16:36;;;;;;;2.22;1.98;;;;;;;;;;4954275;28;20116;-77
2024/04/16 05:19:03;;;;;;;1.33;1.23;;;;;;;;;;4972000;28;20055;-78
2024/04/16 05:21:29;;;;;;;1.58;1.48;;;;;;;;;;4971311;28;20063;-76
2024/04/16 05:23:55;;;;;;;3.17;1.70;;;;;;;;;;4951718;29;20530;-77
2024/04/16 05:26:22;;;;;;;1.48;1.38;;;;;;;;;;4955700;29;20122;-78
2024/04/16 05:28:48;;;;;;;1.48;1.42;;;;;;;;;;4935233;29;20051;-78
2024/04/16 05:31:14;;;;;;;1.45;1.38;;;;;;;;;;4951807;29;20095;-77
2024/04/16 05:33:40;;;;;;;1.58;1.48;;;;;;;;;;4934113;29;20059;-77
2024/04/16 05:36:06;;;;;;;1.88;1.77;;;;;;;;;;4950685;29;20070;-76
2024/04/16 05:38:32;;;;;;;1.25;1.25;;;;;;;;;;4934239;29;20093;-76
2024/04/16 05:40:58;;;;;;;1.25;1.25;;;;;;;;;;4935415;29;20059;-77
2024/04/16 05:43:23;;;;;;;3.50;1.63;;;;;;;;;;4934605;28;20438;-76
2024/04/16 05:45:49;;;;;;;2.30;1.27;;;;;;;;;;4954017;28;20078;-78
2024/04/16 05:48:15;;;;;;;2.22;1.80;;;;;;;;;;4972082;28;20510;-78
2024/04/16 05:50:41;;;;;;;2.45;1.65;;;;;;;;;;4971815;28;20117;-77
2024/04/16 05:53:07;;;;;;;2.80;1.80;;;;;;;;;;4954430;28;20047;-78
2024/04/16 05:55:33;;;;;;;1.90;1.58;;;;;;;;;;4955193;28;20051;-78
2024/04/16 05:58:00;;;;;;;1.70;1.48;;;;;;;;;;4986751;28;20170;-76
2024/04/16 06:00:26;;;;;;;1.95;1.58;;;;;;;;;;4991573;28;20050;-75
2024/04/16 06:02:51;;;;;;;1.50;1.40;;;;;;;;;;4990107;28;20060;-75
2024/04/16 06:05:17;;;;;;;1.13;1.13;;;;;;;;;;4990410;28;20042;-76
2024/04/16 06:07:43;;;;;;;1.35;1.30;;;;;;;;;;4973786;28;20039;-74
2024/04/16 06:10:09;;;;;;;1.40;1.30;;;;;;;;;;4940124;28;20057;-77
2024/04/16 06:12:35;;;;;;;1.92;1.35;;;;;;;;;;4939314;28;20042;-76
2024/04/16 06:15:01;;;;;;;1.58;1.48;;;;;;;;;;4964044;28;20054;-76
2024/04/16 06:17:30;;;;;;;1.00;1.00;;;;;;;;;;4985575;28;20575;-78
2024/04/16 06:19:56;;;;;;;2.33;1.25;;;;;;;;;;4980008;28;20097;-75
2024/04/16 06:22:22;;;;;;;1.85;1.48;;;;;;;;;;4964600;28;20066;-75
2024/04/16 06:24:48;;;;;;;3.65;1.60;;;;;;;;;;4937841;29;20062;-75
2024/04/16 06:27:14;;;;;;;4.13;1.60;;;;;;;;;;4938741;29;20054;-75
2024/04/16 06:29:40;;;;;;;1.70;1.52;;;;;;;;;;4919032;29;20058;-75
2024/04/16 06:32:06;;;;;;;1.80;1.70;;;;;;;;;;4950299;29;20431;-75
2024/04/16 06:34:32;;;;;;;1.70;1.40;;;;;;;;;;4953074;29;20142;-75
2024/04/16 06:37:16;;;;;;;1.73;1.60;;;;;;;;;;4907068;29;20582;-77
2024/04/16 06:39:42;;;;;;;2.55;1.40;;;;;;;;;;4939139;29;20059;-76
2024/04/16 06:42:08;;;;;;;1.20;1.20;;;;;;;;;;4957240;29;20436;-76
2024/04/16 06:44:34;;;;;;;1.67;1.58;;;;;;;;;;4939408;29;20074;-75
2024/04/16 06:47:00;;;;;;;1.33;1.33;;;;;;;;;;4955829;29;20431;-75
2024/04/16 06:49:26;;;;;;;2.50;1.40;;;;;;;;;;4955207;29;20051;-75
2024/04/16 06:51:52;;;;;;;1.50;1.40;;;;;;;;;;4954165;29;20496;-76
2024/04/16 06:54:18;;;;;;;1.75;1.55;;;;;;;;;;4937013;29;20138;-76
2024/04/16 06:56:44;;;;;;;1.48;1.38;;;;;;;;;;4938252;29;20484;-75
2024/04/16 06:59:10;;;;;;;1.60;1.52;;;;;;;;;;4937788;29;20130;-76
2024/04/16 07:01:36;;;;;;;2.30;1.10;;;;;;;;;;4937921;29;20534;-76
2024/04/16 07:04:01;;;;;;;1.70;1.70;;;;;;;;;;4937231;29;20532;-75
2024/04/16 07:06:28;;;;;;;1.65;1.55;;;;;;;;;;4937721;29;20051;-75
2024/04/16 07:08:54;;;;;;;1.95;1.40;;;;;;;;;;4955164;29;20039;-76
2024/04/16 07:11:20;;;;;;;1.83;1.60;;;;;;;;;;4937430;29;20051;-76
2024/04/16 07:13:45;;;;;;;1.20;1.20;;;;;;;;;;4954269;29;20056;-76
2024/04/16 07:16:12;;;;;;;1.85;1.58;;;;;;;;;;4938446;29;20051;-76
2024/04/16 07:18:37;;;;;;;1.50;1.40;;;;;;;;;;4954867;29;20122;-75
2024/04/16 07:21:03;;;;;;;1.60;1.48;;;;;;;;;;4956209;28;20051;-76
2024/04/16 07:23:29;;;;;;;1.35;1.25;;;;;;;;;;4940233;28;20602;-76
2024/04/16 07:25:55;;;;;;;2.35;1.92;;;;;;;;;;4974435;28;20542;-76
2024/04/16 07:28:21;;;;;;;1.48;1.38;;;;;;;;;;4974221;28;20121;-75
2024/04/16 07:30:47;;;;;;;2.70;1.73;;;;;;;;;;4956796;28;20067;-76
2024/04/16 07:33:13;;;;;;;1.65;1.50;;;;;;;;;;4957679;28;20440;-74
2024/04/16 07:35:40;;;;;;;1.58;1.50;;;;;;;;;;4957671;28;20050;-75
2024/04/16 07:38:06;;;;;;;1.70;1.60;;;;;;;;;;4957774;28;20124;-75
2024/04/16 07:40:32;;;;;;;3.47;1.88;;;;;;;;;;4957854;28;20047;-76
2024/04/16 07:42:59;;;;;;;3.22;1.77;;;;;;;;;;4972479;28;20051;-75
2024/04/16 07:45:25;;;;;;;1.63;1.42;;;;;;;;;;4955967;28;20035;-74
2024/04/16 07:47:51;;;;;;;1.67;1.48;;;;;;;;;;4973742;28;20046;-75
2024/04/16 07:50:17;;;;;;;1.52;1.40;;;;;;;;;;4973215;28;20075;-75
2024/04/16 07:52:43;;;;;;;2.67;1.45;;;;;;;;;;4972742;28;20189;-75
2024/04/16 07:55:08;;;;;;;1.70;1.60;;;;;;;;;;4955953;28;20472;-75
2024/04/16 07:57:34;;;;;;;2.05;1.13;;;;;;;;;;4955919;28;20062;-75
2024/04/16 08:00:00;;;;;;;1.20;1.20;;;;;;;;;;4956190;28;20058;-75
2024/04/16 08:02:26;;;;;;;1.52;1.42;;;;;;;;;;4955991;28;20050;-74
2024/04/16 08:04:52;;;;;;;1.30;1.30;;;;;;;;;;4955492;28;20057;-76
2024/04/16 08:07:18;;;;;;;1.77;1.67;;;;;;;;;;4973257;28;20137;-75
2024/04/16 08:09:46;;;;;;;1.95;1.73;;;;;;;;;;4973337;28;20415;-74
2024/04/16 08:12:11;;;;;;;2.03;1.48;;;;;;;;;;4939912;28;20046;-75
2024/04/16 08:14:37;;;;;;;4.03;1.40;;;;;;;;;;4972184;28;20055;-76
2024/04/16 08:17:03;;;;;;;1.30;1.17;;;;;;;;;;4955938;28;20427;-75
2024/04/16 08:19:29;;;;;;;1.10;1.10;;;;;;;;;;4972786;28;20594;-75
2024/04/16 08:21:55;;;;;;;2.63;1.63;;;;;;;;;;4955590;28;20149;-76
2024/04/16 08:24:21;;;;;;;1.90;1.80;;;;;;;;;;4971850;28;20150;-76
2024/04/16 08:26:47;;;;;;;2.67;2.35;;;;;;;;;;4972953;28;20045;-75
2024/04/16 08:29:13;;;;;;;2.05;1.63;;;;;;;;;;4972941;28;20046;-75
2024/04/16 08:31:39;;;;;;;1.90;1.80;;;;;;;;;;4955158;28;20570;-76
2024/04/16 08:34:05;;;;;;;1.45;1.35;;;;;;;;;;4954602;28;20051;-75
2024/04/16 08:36:30;;;;;;;1.70;1.60;;;;;;;;;;4971431;28;20053;-75
2024/04/16 08:38:56;;;;;;;1.50;1.48;;;;;;;;;;4939725;28;20122;-76
2024/04/16 08:41:22;;;;;;;1.30;1.30;;;;;;;;;;4972409;28;20137;-76
2024/04/16 08:43:48;;;;;;;1.50;1.40;;;;;;;;;;4954446;28;20051;-75
2024/04/16 08:46:14;;;;;;;2.85;1.15;;;;;;;;;;4956302;28;20046;-75
2024/04/16 08:48:40;;;;;;;1.30;1.20;;;;;;;;;;4956665;28;20415;-76
2024/04/16 08:51:06;;;;;;;3.13;1.90;;;;;;;;;;4973650;28;20035;-75
2024/04/16 08:53:32;;;;;;;3.65;1.65;;;;;;;;;;4954369;28;20054;-76
2024/04/16 08:55:58;;;;;;;2.35;1.63;;;;;;;;;;4972990;28;20042;-76
2024/04/16 08:58:24;;;;;;;1.00;1.00;;;;;;;;;;4972311;28;20146;-75
2024/04/16 09:00:50;;;;;;;1.60;1.50;;;;;;;;;;4955141;28;20089;-76
2024/04/16 09:03:16;;;;;;;2.17;1.90;;;;;;;;;;4971498;28;20062;-76
2024/04/16 09:05:41;;;;;;;1.58;1.48;;;;;;;;;;4972080;28;20054;-76
2024/04/16 09:08:07;;;;;;;1.60;1.50;;;;;;;;;;4939083;28;20139;-75
2024/04/16 09:10:33;;;;;;;2.17;1.70;;;;;;;;;;4954781;28;20520;-76
2024/04/16 09:13:09;;;;;;;2.80;1.80;;;;;;;;;;4971183;28;20047;-76
2024/04/16 09:15:37;;;;;;;1.80;1.70;;;;;;;;;;4971807;28;20049;-76
2024/04/16 09:18:03;;;;;;;1.50;1.40;;;;;;;;;;4972583;28;20052;-76
2024/04/16 09:20:29;;;;;;;1.67;1.50;;;;;;;;;;4972556;28;20054;-77
2024/04/16 09:22:55;;;;;;;2.10;1.55;;;;;;;;;;4955274;28;20054;-76
2024/04/16 09:25:22;;;;;;;2.42;1.60;;;;;;;;;;4954633;28;20046;-76
2024/04/16 09:27:48;;;;;;;1.63;1.52;;;;;;;;;;4970861;28;20042;-75
2024/04/16 09:30:14;;;;;;;1.83;1.73;;;;;;;;;;4938576;28;20475;-75
2024/04/16 09:32:41;;;;;;;1.45;1.35;;;;;;;;;;4953454;28;20038;-75
2024/04/16 09:35:07;;;;;;;1.40;1.35;;;;;;;;;;4954467;28;20039;-74
2024/04/16 09:37:33;;;;;;;1.40;1.40;;;;;;;;;;4971791;28;20047;-76
2024/04/16 09:39:59;;;;;;;2.95;1.80;;;;;;;;;;4954567;28;20051;-75
2024/04/16 09:42:25;;;;;;;1.60;1.50;;;;;;;;;;4954068;28;20038;-74
2024/04/16 09:44:51;;;;;;;1.75;1.20;;;;;;;;;;4969612;28;20137;-75
2024/04/16 09:47:17;;;;;;;3.65;1.90;;;;;;;;;;4954447;28;20590;-75
2024/04/16 09:49:43;;;;;;;1.88;1.60;;;;;;;;;;4971899;28;20044;-75
2024/04/16 09:52:09;;;;;;;1.95;1.33;;;;;;;;;;4973174;28;20141;-74
2024/04/16 09:54:35;;;;;;;1.80;1.60;;;;;;;;;;4970935;28;20383;-76
2024/04/16 09:57:01;;;;;;;1.30;1.23;;;;;;;;;;4972003;28;20039;-76
2024/04/16 09:59:27;;;;;;;2.65;1.73;;;;;;;;;;4971356;28;20078;-77
2024/04/16 10:01:53;;;;;;;1.45;1.35;;;;;;;;;;4972025;28;20049;-76
2024/04/16 10:04:19;;;;;;;1.60;1.25;;;;;;;;;;4970608;28;20542;-76
2024/04/16 10:06:47;;;;;;;1.30;1.20;;;;;;;;;;4970229;28;20121;-75
2024/04/16 10:09:17;;;;;;;2.85;1.17;;;;;;;;;;4938558;28;20660;-76
2024/04/16 10:11:44;;;;;;;1.20;1.20;;;;;;;;;;4954139;28;20046;-76
2024/04/16 10:14:09;;;;;;;3.20;1.90;;;;;;;;;;4953575;28;20061;-76
2024/04/16 10:16:35;;;;;;;2.33;1.50;;;;;;;;;;4954230;28;20118;-76
2024/04/16 10:19:03;;;;;;;2.40;1.67;;;;;;;;;;4971801;28;20058;-76
2024/04/16 10:21:36;;;;;;;2.85;1.60;;;;;;;;;;4970855;28;20075;-76
2024/04/16 10:24:03;;;;;;;1.50;1.40;;;;;;;;;;4970678;28;20058;-75
2024/04/16 10:26:33;;;;;;;1.77;1.50;;;;;;;;;;4953796;28;20039;-75
2024/04/16 10:28:59;;;;;;;1.58;1.48;;;;;;;;;;4954206;28;20042;-77
2024/04/16 10:31:33;;;;;;;1.02;1.02;;;;;;;;;;4971161;28;20105;-75
2024/04/16 10:34:01;;;;;;;2.00;1.20;;;;;;;;;;4970682;28;20042;-76
2024/04/16 10:36:27;;;;;;;1.20;1.20;;;;;;;;;;4954484;28;20055;-78
2024/04/16 10:38:53;;;;;;;1.75;1.25;;;;;;;;;;4954331;28;20043;-77
2024/04/16 10:41:28;;;;;;;1.50;1.40;;;;;;;;;;4971500;28;20376;-76
2024/04/16 10:43:57;;;;;;;1.58;1.48;;;;;;;;;;4971442;28;20039;-77
2024/04/16 10:46:23;;;;;;;1.85;1.42;;;;;;;;;;4955138;28;20039;-77
2024/04/16 10:48:49;;;;;;;1.42;1.30;;;;;;;;;;4972839;28;20049;-77
2024/04/16 10:51:15;;;;;;;1.52;1.42;;;;;;;;;;4955982;28;20503;-77
2024/04/16 10:53:41;;;;;;;1.50;1.40;;;;;;;;;;4974576;28;20064;-77
2024/04/16 10:56:08;;;;;;;2.53;1.60;;;;;;;;;;4979638;28;20102;-76
2024/04/16 10:58:34;;;;;;;1.00;1.00;;;;;;;;;;4977122;28;20054;-78
2024/04/16 11:01:00;;;;;;;1.73;1.63;;;;;;;;;;4974212;28;20055;-78
2024/04/16 11:03:26;;;;;;;1.45;1.25;;;;;;;;;;4969268;28;20058;-76
2024/04/16 11:05:51;;;;;;;2.60;1.23;;;;;;;;;;4971615;28;20511;-78
2024/04/16 11:08:17;;;;;;;1.33;1.20;;;;;;;;;;4975135;28;20053;-77
2024/04/16 11:10:49;;;;;;;1.50;1.40;;;;;;;;;;4957628;28;20380;-77
2024/04/16 11:13:15;;;;;;;1.50;1.40;;;;;;;;;;4957795;28;20055;-78
2024/04/16 11:15:41;;;;;;;2.28;1.20;;;;;;;;;;4925615;28;20074;-78
2024/04/16 11:18:07;;;;;;;1.05;1.05;;;;;;;;;;4958138;28;20095;-77
2024/04/16 11:20:33;;;;;;;1.00;1.00;;;;;;;;;;4957334;28;20047;-77
2024/04/16 11:22:59;;;;;;;1.98;1.30;;;;;;;;;;4956698;28;20059;-78
2024/04/16 11:25:29;;;;;;;1.52;1.42;;;;;;;;;;4974734;28;20035;-76
2024/04/16 11:27:55;;;;;;;1.63;1.27;;;;;;;;;;4957884;28;20045;-77
2024/04/16 11:30:21;;;;;;;1.65;1.38;;;;;;;;;;4974396;28;20270;-76
2024/04/16 11:32:47;;;;;;;1.27;1.27;;;;;;;;;;4973387;28;20091;-76
2024/04/16 11:35:13;;;;;;;1.27;1.17;;;;;;;;;;4974869;28;20131;-75
2024/04/16 11:37:38;;;;;;;1.35;1.20;;;;;;;;;;4941374;28;20051;-77
2024/04/16 11:40:04;;;;;;;1.52;1.10;;;;;;;;;;4941433;28;20541;-76
2024/04/16 11:42:31;;;;;;;1.08;1.00;;;;;;;;;;4975384;28;20097;-78
2024/04/16 11:44:58;;;;;;;1.17;1.10;;;;;;;;;;4956689;28;20547;-76
2024/04/16 11:47:24;;;;;;;4.28;1.20;;;;;;;;;;4974799;28;20130;-76
2024/04/16 11:49:49;;;;;;;1.10;1.00;;;;;;;;;;4974594;28;21142;-76
2024/04/16 11:52:15;;;;;;;1.75;0.90;;;;;;;;;;4941661;28;20117;-76
2024/04/16 11:54:41;;;;;;;1.40;1.30;;;;;;;;;;4957534;28;20074;-76
2024/04/16 11:57:07;;;;;;;1.42;0.93;;;;;;;;;;4974736;28;20042;-76
2024/04/16 11:59:34;;;;;;;2.28;1.08;;;;;;;;;;4974294;28;20050;-75
2024/04/16 12:02:00;;;;;;;1.35;1.25;;;;;;;;;;4957135;28;20038;-76
2024/04/16 12:04:26;;;;;;;0.90;0.90;;;;;;;;;;4973608;28;20058;-77
2024/04/16 12:06:52;;;;;;;1.33;0.95;;;;;;;;;;4973344;28;20150;-76
2024/04/16 12:09:18;;;;;;;1.13;0.95;;;;;;;;;;4957138;28;20073;-77
2024/04/16 12:11:44;;;;;;;1.90;1.08;;;;;;;;;;4957278;28;20155;-77
2024/04/16 12:14:10;;;;;;;1.40;1.40;;;;;;;;;;4966163;28;20054;-75
2024/04/16 12:16:38;;;;;;;0.63;0.63;;;;;;;;;;4988703;28;20038;-76
2024/04/16 12:19:04;;;;;;;3.60;1.05;;;;;;;;;;4988165;28;20047;-76
2024/04/16 12:21:30;;;;;;;1.73;1.33;;;;;;;;;;4989746;28;20050;-76
2024/04/16 12:23:56;;;;;;;1.50;1.40;;;;;;;;;;4989656;28;20114;-76
2024/04/16 12:26:22;;;;;;;1.08;1.05;;;;;;;;;;4973560;28;20511;-75
2024/04/16 12:28:49;;;;;;;1.45;1.30;;;;;;;;;;4989849;28;20657;-76
2024/04/16 12:31:15;;;;;;;1.50;1.40;;;;;;;;;;4970377;28;20105;-77
2024/04/16 12:33:42;;;;;;;1.00;1.00;;;;;;;;;;4974684;28;20047;-76
2024/04/16 12:36:09;;;;;;;1.50;1.40;;;;;;;;;;4958067;28;20129;-76
2024/04/16 12:38:35;;;;;;;3.00;1.10;;;;;;;;;;4956877;28;20055;-76
2024/04/16 12:41:01;;;;;;;1.45;1.23;;;;;;;;;;4974800;28;20062;-78
2024/04/16 12:43:27;;;;;;;1.20;1.10;;;;;;;;;;4972996;28;20042;-77
2024/04/16 12:45:54;;;;;;;1.85;1.35;;;;;;;;;;4973968;28;21047;-76
2024/04/16 12:48:23;;;;;;;4.53;1.30;;;;;;;;;;4933583;28;20054;-76
2024/04/16 12:50:49;;;;;;;5.45;1.48;;;;;;;;;;4965483;28;20553;-76
2024/04/16 12:53:15;;;;;;;0.93;0.93;;;;;;;;;;4965023;28;20488;-76
2024/04/16 12:55:40;;;;;;;1.30;1.30;;;;;;;;;;4951879;28;20091;-77
2024/04/16 12:58:06;;;;;;;1.50;1.40;;;;;;;;;;4949632;28;20043;-76
2024/04/16 13:00:32;;;;;;;1.85;1.45;;;;;;;;;;4950543;29;20551;-77
2024/04/16 13:02:58;;;;;;;2.17;1.20;;;;;;;;;;4962664;28;20063;-76
2024/04/16 13:05:24;;;;;;;1.95;1.70;;;;;;;;;;4935583;28;20037;-76
2024/04/16 13:07:50;;;;;;;2.20;1.38;;;;;;;;;;4967579;28;20050;-76
2024/04/16 13:10:16;;;;;;;3.95;1.35;;;;;;;;;;4966737;28;20058;-76
2024/04/16 13:12:43;;;;;;;3.58;1.50;;;;;;;;;;4942774;28;20054;-74
2024/04/16 13:15:09;;;;;;;1.67;1.58;;;;;;;;;;4965809;28;20130;-76
2024/04/16 13:17:35;;;;;;;1.55;1.45;;;;;;;;;;4959127;28;20066;-76
2024/04/16 13:20:01;;;;;;;2.13;1.50;;;;;;;;;;4956415;28;20149;-76
2024/04/16 13:22:28;;;;;;;1.13;1.13;;;;;;;;;;4974608;28;20047;-76
2024/04/16 13:24:54;;;;;;;2.55;1.30;;;;;;;;;;4980450;28;20531;-76
2024/04/16 13:27:20;;;;;;;2.72;1.42;;;;;;;;;;4978634;28;20042;-76
2024/04/16 13:29:46;;;;;;;1.30;1.20;;;;;;;;;;4979558;28;20051;-75
2024/04/16 13:32:12;;;;;;;1.25;1.23;;;;;;;;;;4955258;28;20039;-77
2024/04/16 13:34:38;;;;;;;3.70;1.60;;;;;;;;;;4949263;28;20146;-77
2024/04/16 13:37:03;;;;;;;0.98;0.98;;;;;;;;;;4951806;28;20113;-77
2024/04/16 13:39:29;;;;;;;1.00;1.00;;;;;;;;;;4952663;28;20059;-76
2024/04/16 13:41:55;;;;;;;1.40;1.30;;;;;;;;;;4946602;28;20066;-76
2024/04/16 13:44:21;;;;;;;1.45;1.30;;;;;;;;;;4966554;28;20113;-76
2024/04/16 13:46:47;;;;;;;1.30;1.20;;;;;;;;;;4944363;28;20065;-76
2024/04/16 13:49:14;;;;;;;2.72;1.48;;;;;;;;;;4951289;28;20533;-76
2024/04/16 13:51:39;;;;;;;1.77;1.65;;;;;;;;;;4967104;28;20049;-78
2024/04/16 13:54:05;;;;;;;7.30;1.55;;;;;;;;;;4950305;28;20058;-75
2024/04/16 13:56:31;;;;;;;1.67;1.30;;;;;;;;;;4951279;28;20043;-77
2024/04/16 13:58:58;;;;;;;5.93;1.55;;;;;;;;;;4966839;28;20047;-78
2024/04/16 14:01:24;;;;;;;5.38;1.50;;;;;;;;;;4951243;28;20051;-77
2024/04/16 14:03:50;;;;;;;3.28;1.85;;;;;;;;;;4966961;28;20431;-77
2024/04/16 14:06:35;;;;;;;2.25;1.42;;;;;;;;;;4953017;28;20113;-76
2024/04/16 14:09:01;;;;;;;1.55;1.42;;;;;;;;;;4968147;28;20641;-77
2024/04/16 14:11:27;;;;;;;1.20;1.20;;;;;;;;;;4965920;28;20054;-76
2024/04/16 14:13:52;;;;;;;1.65;1.55;;;;;;;;;;4967081;28;20043;-76
2024/04/16 14:16:18;;;;;;;1.30;1.30;;;;;;;;;;4951278;28;20046;-76
2024/04/16 14:18:50;;;;;;;4.72;1.60;;;;;;;;;;4947996;28;20134;-77
2024/04/16 14:21:16;;;;;;;1.60;1.50;;;;;;;;;;4969196;28;20063;-76
2024/04/16 14:23:42;;;;;;;5.65;1.30;;;;;;;;;;4950627;28;20047;-76
2024/04/16 14:26:08;;;;;;;1.35;1.30;;;;;;;;;;4968008;28;20350;-76
2024/04/16 14:28:34;;;;;;;1.55;1.38;;;;;;;;;;4968565;28;20546;-75
2024/04/16 14:31:00;;;;;;;1.95;1.75;;;;;;;;;;4968837;28;20051;-77
2024/04/16 14:33:26;;;;;;;4.45;1.60;;;;;;;;;;4952224;28;20049;-77
2024/04/16 14:35:52;;;;;;;1.83;1.48;;;;;;;;;;4969300;28;20042;-77
2024/04/16 14:38:17;;;;;;;1.42;1.33;;;;;;;;;;4971629;28;20050;-77